Terminal Aerodrome Forecast
Issued by NWS Springfield, MO

Home | Current Version | Previous Version | Text Only | Print | Product List | Glossary On
Versions: 1 2 3 4 5 6 7 8 9 10 11 12 13 14 15 16 17
158
FTUS43 KSGF 211720
TAFSGF
TAF
KSGF 211720Z 2118/2218 07010KT P6SM -RA OVC009
      TEMPO 2118/2121 5SM -TSRA BR OVC015CB
     FM212100 06014KT 4SM -RA BR OVC007
     FM212300 06016G25KT 4SM -RA BR OVC007
     FM221000 04015KT 4SM -RA BR OVC007=

USA.gov is the U.S. government's official web portal to all federal, state and local government web resources and services.